Time;durP1;ratioP1;P1;durP2;ratioP2;P2;SDS_P1;SDS_P2;PMS_P1;PMS_P2;Temp;Humidity;BMP_temperature;BMP_pressure;BME280_temperature;BME280_humidity;BME280_pressure;Samples;Min_cycle;Max_cycle;Signal;HPM_P1;HPM_P2
2023/05/28 00:00:10;;;;;;;1999.90;999.90;;;17.00;91.30;;;;;;5035738;28;20201;-70
2023/05/28 00:02:36;;;;;;;1999.90;999.90;;;16.90;92.90;;;;;;5035203;28;20951;-70
2023/05/28 00:05:02;;;;;;;1999.90;999.90;;;16.80;94.00;;;;;;5035405;28;20411;-69
2023/05/28 00:07:28;;;;;;;1999.90;999.90;;;16.70;95.90;;;;;;5035562;28;20410;-70
2023/05/28 00:09:55;;;;;;;1999.90;999.90;;;16.70;95.30;;;;;;5035472;28;20419;-69
2023/05/28 00:12:21;;;;;;;1999.90;999.90;;;16.70;96.30;;;;;;5034939;28;20191;-70
2023/05/28 00:14:47;;;;;;;1999.90;999.90;;;16.70;97.60;;;;;;5035491;28;20933;-70
2023/05/28 00:17:13;;;;;;;1999.90;999.90;;;16.60;97.10;;;;;;5035639;28;20414;-70
2023/05/28 00:19:39;;;;;;;1999.90;999.90;;;16.40;98.30;;;;;;5035682;28;20182;-70
2023/05/28 00:22:05;;;;;;;1999.90;999.90;;;16.30;99.90;;;;;;5035337;28;20785;-70
2023/05/28 00:24:30;;;;;;;1999.90;999.90;;;16.30;99.90;;;;;;5035222;28;20402;-70
2023/05/28 00:26:56;;;;;;;1999.90;999.90;;;16.20;99.90;;;;;;5035395;28;20656;-70
2023/05/28 00:29:24;;;;;;;1999.90;999.90;;;16.20;99.90;;;;;;5035039;28;20198;-69
2023/05/28 00:31:51;;;;;;;1999.90;999.90;;;16.10;99.90;;;;;;5034889;28;20253;-69
2023/05/28 00:34:16;;;;;;;1999.90;999.90;;;16.00;99.90;;;;;;5035607;28;20408;-69
2023/05/28 00:36:42;;;;;;;1999.90;999.90;;;16.00;99.90;;;;;;5035446;28;20400;-69
2023/05/28 00:39:07;;;;;;;1999.90;999.90;;;15.90;99.90;;;;;;5036258;28;20634;-70
2023/05/28 00:41:35;;;;;;;1999.90;999.90;;;15.90;99.90;;;;;;5036506;28;20189;-70
2023/05/28 00:44:01;;;;;;;1999.90;999.90;;;15.90;99.90;;;;;;5036454;28;20173;-69
2023/05/28 00:46:27;;;;;;;1999.90;999.90;;;15.80;99.90;;;;;;5036369;28;20411;-69
2023/05/28 00:48:53;;;;;;;1999.90;999.90;;;15.80;99.90;;;;;;5036686;28;20853;-69
2023/05/28 00:51:19;;;;;;;1999.90;999.90;;;15.70;99.90;;;;;;5036722;28;20599;-69
2023/05/28 00:53:44;;;;;;;1999.90;999.90;;;15.70;99.90;;;;;;5037308;28;20186;-69
2023/05/28 00:56:11;;;;;;;1999.90;999.90;;;15.60;99.90;;;;;;5038426;28;20160;-69
2023/05/28 00:58:40;;;;;;;1999.90;999.90;;;15.60;99.90;;;;;;5039735;28;20171;-69
2023/05/28 01:01:07;;;;;;;1999.90;999.90;;;15.60;99.90;;;;;;5039346;28;20798;-70
2023/05/28 01:03:37;;;;;;;1999.90;999.90;;;15.50;99.90;;;;;;5039673;28;20447;-70
2023/05/28 01:06:07;;;;;;;1999.90;999.90;;;15.50;99.90;;;;;;5040800;28;20407;-69
2023/05/28 01:08:33;;;;;;;1999.90;999.90;;;15.40;99.90;;;;;;5039935;28;20444;-69
2023/05/28 01:11:00;;;;;;;1999.90;999.90;;;15.30;99.90;;;;;;5039299;28;20430;-69
2023/05/28 01:13:25;;;;;;;1999.90;999.90;;;15.30;99.90;;;;;;5041336;28;20448;-69
2023/05/28 01:15:51;;;;;;;1999.90;999.90;;;15.20;99.90;;;;;;5041156;28;20461;-69
2023/05/28 01:18:17;;;;;;;1999.90;999.90;;;15.00;99.90;;;;;;5040802;28;20584;-69
2023/05/28 01:20:42;;;;;;;1999.90;999.90;;;14.90;99.90;;;;;;5039602;28;20191;-70
2023/05/28 01:23:15;;;;;;;1999.90;999.90;;;14.80;99.90;;;;;;5040638;28;20198;-69
2023/05/28 01:25:41;;;;;;;1999.90;999.90;;;14.80;99.90;;;;;;5040158;28;20170;-69
2023/05/28 01:28:13;;;;;;;1999.90;999.90;;;14.70;99.90;;;;;;5040397;28;20450;-69
2023/05/28 01:30:39;;;;;;;1999.90;999.90;;;14.60;99.90;;;;;;5040616;28;20184;-70
2023/05/28 01:33:06;;;;;;;1999.90;999.90;;;14.50;99.90;;;;;;5041069;28;20409;-69
2023/05/28 01:35:32;;;;;;;1999.90;999.90;;;14.40;99.90;;;;;;5042103;28;20402;-70
2023/05/28 01:38:01;;;;;;;1999.90;999.90;;;14.40;99.90;;;;;;5040230;28;20418;-69
2023/05/28 01:40:27;;;;;;;1999.90;999.90;;;14.30;99.90;;;;;;5040219;28;20469;-69
2023/05/28 01:42:56;;;;;;;1999.90;999.90;;;14.30;99.90;;;;;;5040997;28;20436;-69
2023/05/28 01:45:23;;;;;;;1999.90;999.90;;;14.40;99.90;;;;;;5042317;28;20442;-69
2023/05/28 01:47:50;;;;;;;1999.90;999.90;;;14.30;99.90;;;;;;5041354;28;20816;-69
2023/05/28 01:50:16;;;;;;;1999.90;999.90;;;14.30;99.90;;;;;;5041779;28;20994;-69
2023/05/28 01:52:42;;;;;;;1999.90;999.90;;;14.30;99.90;;;;;;5041592;28;20403;-69
2023/05/28 01:55:11;;;;;;;1999.90;999.90;;;14.30;99.90;;;;;;5040475;28;20867;-69
2023/05/28 01:57:38;;;;;;;1999.90;999.90;;;14.20;99.90;;;;;;5041323;28;20168;-70
2023/05/28 02:00:06;;;;;;;1999.90;999.90;;;14.20;99.90;;;;;;5042135;28;20432;-69
2023/05/28 02:02:31;;;;;;;1999.90;999.90;;;14.00;99.90;;;;;;5042312;28;20403;-70
2023/05/28 02:04:57;;;;;;;1999.90;999.90;;;13.90;99.90;;;;;;5042426;28;20409;-69
2023/05/28 02:07:22;;;;;;;1999.90;999.90;;;13.90;99.90;;;;;;5044100;28;20174;-69
2023/05/28 02:09:48;;;;;;;1999.90;999.90;;;13.80;99.90;;;;;;5044937;28;20192;-68
2023/05/28 02:12:14;;;;;;;1999.90;999.90;;;13.70;99.90;;;;;;5044543;28;20556;-69
2023/05/28 02:14:40;;;;;;;1999.90;999.90;;;13.60;99.90;;;;;;5044417;28;20622;-69
2023/05/28 02:17:06;;;;;;;1999.90;999.90;;;13.50;99.90;;;;;;5042493;28;20517;-70
2023/05/28 02:19:32;;;;;;;1999.90;999.90;;;13.40;99.90;;;;;;5039034;28;20422;-69
2023/05/28 02:21:58;;;;;;;1999.90;999.90;;;13.40;99.90;;;;;;5037096;28;20425;-69
2023/05/28 02:24:23;;;;;;;1999.90;999.90;;;13.30;99.90;;;;;;5035715;28;20402;-69
2023/05/28 02:26:50;;;;;;;1999.90;999.90;;;13.20;99.90;;;;;;5038445;28;20203;-69
2023/05/28 02:29:15;;;;;;;1999.90;999.90;;;13.20;99.90;;;;;;5039714;28;20235;-68
2023/05/28 02:31:41;;;;;;;1999.90;999.90;;;13.10;99.90;;;;;;5036869;28;20426;-68
2023/05/28 02:34:07;;;;;;;1999.90;999.90;;;13.00;99.90;;;;;;5035086;28;20161;-69
2023/05/28 02:36:33;;;;;;;1999.90;999.90;;;13.00;99.90;;;;;;5033788;28;20168;-69
2023/05/28 02:38:58;;;;;;;1999.90;999.90;;;12.90;99.90;;;;;;5033290;28;20406;-69
2023/05/28 02:41:26;;;;;;;1999.90;999.90;;;12.90;99.90;;;;;;5032710;28;20250;-69
2023/05/28 02:43:51;;;;;;;1999.90;999.90;;;12.80;99.90;;;;;;5033219;28;20258;-68
2023/05/28 02:46:17;;;;;;;1999.90;999.90;;;12.80;99.90;;;;;;5033128;28;20541;-69
2023/05/28 02:48:44;;;;;;;1999.90;999.90;;;12.80;99.90;;;;;;5034096;28;20249;-69
2023/05/28 02:51:10;;;;;;;1999.90;999.90;;;12.80;99.90;;;;;;5034731;28;20256;-68
2023/05/28 02:53:35;;;;;;;1999.90;999.90;;;12.80;99.90;;;;;;5035989;28;20394;-69
2023/05/28 02:56:01;;;;;;;1999.90;999.90;;;12.80;99.90;;;;;;5033917;28;20517;-69
2023/05/28 02:58:28;;;;;;;1999.90;999.90;;;12.70;99.90;;;;;;5033852;28;20237;-69
2023/05/28 03:00:54;;;;;;;1999.90;999.90;;;12.70;99.90;;;;;;5034023;28;20688;-68
2023/05/28 03:03:19;;;;;;;1999.90;999.90;;;12.70;99.90;;;;;;5033496;28;20399;-69
2023/05/28 03:05:45;;;;;;;1999.90;999.90;;;12.70;99.90;;;;;;5033106;28;20234;-69
2023/05/28 03:08:11;;;;;;;1999.90;999.90;;;12.70;99.90;;;;;;5032992;28;20229;-69
2023/05/28 03:10:37;;;;;;;1999.90;999.90;;;12.70;99.90;;;;;;5032866;28;20508;-69
2023/05/28 03:13:02;;;;;;;1999.90;999.90;;;12.70;99.90;;;;;;5033344;28;20187;-68
2023/05/28 03:15:28;;;;;;;1999.90;999.90;;;12.60;99.90;;;;;;5032057;28;20175;-69
2023/05/28 03:17:54;;;;;;;1999.90;999.90;;;12.60;99.90;;;;;;5032052;28;20171;-68
2023/05/28 03:20:19;;;;;;;1999.90;999.90;;;12.60;99.90;;;;;;5031931;28;20191;-68
2023/05/28 03:22:48;;;;;;;1999.90;999.90;;;12.50;99.90;;;;;;5031670;28;20414;-69
2023/05/28 03:25:13;;;;;;;1999.90;999.90;;;12.50;99.90;;;;;;5032161;28;20258;-68
2023/05/28 03:27:39;;;;;;;1999.90;999.90;;;12.50;99.90;;;;;;5031874;28;20872;-68
2023/05/28 03:30:07;;;;;;;1999.90;999.90;;;12.40;99.90;;;;;;5031952;28;20218;-68
2023/05/28 03:32:33;;;;;;;1999.90;999.90;;;12.30;99.90;;;;;;5031670;28;20177;-68
2023/05/28 03:34:58;;;;;;;1999.90;999.90;;;12.30;99.90;;;;;;5031776;28;20947;-68
2023/05/28 03:37:26;;;;;;;1999.90;999.90;;;12.30;99.90;;;;;;5031819;28;20625;-68
2023/05/28 03:39:52;;;;;;;1999.90;999.90;;;12.30;99.90;;;;;;5031894;28;20198;-68
2023/05/28 03:42:18;;;;;;;1999.90;999.90;;;12.30;99.90;;;;;;5031624;28;20404;-68
2023/05/28 03:44:43;;;;;;;1999.90;999.90;;;12.30;99.90;;;;;;5031770;28;20449;-69
2023/05/28 03:47:09;;;;;;;1999.90;999.90;;;12.30;99.90;;;;;;5031785;28;20167;-68
2023/05/28 03:49:35;;;;;;;1999.90;999.90;;;12.20;99.90;;;;;;5031610;28;20737;-68
2023/05/28 03:52:01;;;;;;;1999.90;999.90;;;12.20;99.90;;;;;;5031375;28;20537;-68
2023/05/28 03:54:26;;;;;;;1999.90;999.90;;;12.10;99.90;;;;;;5031743;28;20167;-69
2023/05/28 03:56:52;;;;;;;1999.90;999.90;;;12.20;99.90;;;;;;5031650;28;20171;-69
2023/05/28 03:59:17;;;;;;;1999.90;999.90;;;12.20;99.90;;;;;;5031738;28;20640;-68
2023/05/28 04:01:43;;;;;;;1999.90;999.90;;;12.10;99.90;;;;;;5031281;28;20195;-68
2023/05/28 04:04:08;;;;;;;1999.90;999.90;;;12.20;99.90;;;;;;5031531;28;20214;-68
2023/05/28 04:06:34;;;;;;;1999.90;999.90;;;12.20;99.90;;;;;;5031547;28;20221;-68
2023/05/28 04:09:00;;;;;;;1999.90;999.90;;;12.30;99.90;;;;;;5031684;28;20276;-68
2023/05/28 04:11:29;;;;;;;1999.90;999.90;;;12.40;99.90;;;;;;5031182;28;20553;-68
2023/05/28 04:13:55;;;;;;;1999.90;999.90;;;12.40;99.90;;;;;;5031428;28;20268;-68
2023/05/28 04:16:22;;;;;;;1999.90;999.90;;;12.40;99.90;;;;;;5031500;28;20421;-68
2023/05/28 04:18:52;;;;;;;1999.90;999.90;;;12.40;99.90;;;;;;5031390;28;20470;-68
2023/05/28 04:21:17;;;;;;;1999.90;999.90;;;12.40;99.90;;;;;;5031833;28;20473;-68
2023/05/28 04:23:43;;;;;;;1999.90;999.90;;;12.50;99.90;;;;;;5035144;28;20433;-68
2023/05/28 04:26:09;;;;;;;1999.90;999.90;;;12.50;99.90;;;;;;5035078;28;20175;-68
2023/05/28 04:28:36;;;;;;;1999.90;999.90;;;12.50;99.90;;;;;;5034991;28;20195;-68
2023/05/28 04:31:03;;;;;;;1999.90;999.90;;;12.50;99.90;;;;;;5034584;28;20454;-68
2023/05/28 04:33:29;;;;;;;1999.90;999.90;;;12.50;99.90;;;;;;5034768;28;20398;-68
2023/05/28 04:35:58;;;;;;;1999.90;999.90;;;12.60;99.90;;;;;;5035009;28;20406;-68
2023/05/28 04:38:24;;;;;;;1999.90;999.90;;;12.60;99.90;;;;;;5034933;28;20203;-68
2023/05/28 04:40:50;;;;;;;1999.90;999.90;;;12.60;99.90;;;;;;5034635;28;20485;-68
2023/05/28 04:43:16;;;;;;;1999.90;999.90;;;12.60;99.90;;;;;;5039073;28;20426;-68
2023/05/28 04:45:43;;;;;;;1999.90;999.90;;;12.70;99.90;;;;;;5054646;28;20591;-69
2023/05/28 04:48:09;;;;;;;1999.90;999.90;;;12.70;99.90;;;;;;5054432;28;20912;-68
2023/05/28 04:50:35;;;;;;;1999.90;999.90;;;12.70;99.90;;;;;;5054486;28;20421;-69
2023/05/28 04:53:01;;;;;;;1999.90;999.90;;;12.60;99.90;;;;;;5054166;28;20918;-68
2023/05/28 04:55:27;;;;;;;1999.90;999.90;;;12.70;99.90;;;;;;5054550;28;20441;-68
2023/05/28 04:57:53;;;;;;;1999.90;999.90;;;12.80;99.90;;;;;;5054438;28;20167;-68
2023/05/28 05:00:19;;;;;;;1999.90;999.90;;;12.80;99.90;;;;;;5054309;28;20524;-68
2023/05/28 05:02:44;;;;;;;1999.90;999.90;;;12.80;99.90;;;;;;5053931;28;20190;-68
2023/05/28 05:05:10;;;;;;;1999.90;999.90;;;12.90;99.90;;;;;;5054203;28;20774;-68
2023/05/28 05:07:37;;;;;;;1999.90;999.90;;;13.00;99.90;;;;;;5054293;28;20180;-68
2023/05/28 05:10:09;;;;;;;1999.90;999.90;;;13.00;99.90;;;;;;5054194;28;20430;-68
2023/05/28 05:12:36;;;;;;;1999.90;999.90;;;13.10;99.90;;;;;;5053816;28;20927;-68
2023/05/28 05:15:04;;;;;;;1999.90;999.90;;;13.20;99.90;;;;;;5054062;28;20786;-69
2023/05/28 05:17:30;;;;;;;1999.90;999.90;;;13.20;99.90;;;;;;5053960;28;20785;-69
2023/05/28 05:19:56;;;;;;;1999.90;999.90;;;13.30;99.90;;;;;;5054070;28;20429;-68
2023/05/28 05:22:22;;;;;;;1999.90;999.90;;;13.30;99.90;;;;;;5053786;28;20962;-68
2023/05/28 05:24:48;;;;;;;1999.90;999.90;;;13.30;99.90;;;;;;5053998;28;20473;-68
2023/05/28 05:27:13;;;;;;;1999.90;999.90;;;13.40;99.90;;;;;;5053858;28;20541;-68
2023/05/28 05:29:39;;;;;;;1999.90;999.90;;;13.50;99.90;;;;;;5053676;28;20456;-68
2023/05/28 05:32:06;;;;;;;1999.90;999.90;;;13.60;99.90;;;;;;5053341;28;20629;-69
2023/05/28 05:34:31;;;;;;;1999.90;999.90;;;13.60;99.90;;;;;;5053768;28;20653;-68
2023/05/28 05:36:58;;;;;;;1999.90;999.90;;;13.70;99.90;;;;;;5053644;28;20409;-69
2023/05/28 05:39:24;;;;;;;1999.90;999.90;;;13.80;99.90;;;;;;5053647;28;20176;-68
2023/05/28 05:41:50;;;;;;;1999.90;999.90;;;13.90;99.90;;;;;;5053257;28;20421;-68
2023/05/28 05:44:16;;;;;;;1999.90;999.90;;;13.90;99.90;;;;;;5053597;28;20524;-68
2023/05/28 05:46:41;;;;;;;1999.90;999.90;;;14.00;99.90;;;;;;5053434;28;20189;-68
2023/05/28 05:49:07;;;;;;;1999.90;999.90;;;14.10;99.90;;;;;;5053393;28;20731;-68
2023/05/28 05:51:33;;;;;;;1999.90;999.90;;;14.10;99.90;;;;;;5053235;28;20196;-68
2023/05/28 05:53:59;;;;;;;1999.90;999.90;;;14.10;99.90;;;;;;5053258;28;20955;-68
2023/05/28 05:56:25;;;;;;;1999.90;999.90;;;14.20;99.90;;;;;;5053326;28;20648;-68
2023/05/28 05:58:51;;;;;;;1999.90;999.90;;;14.30;99.90;;;;;;5053240;28;20203;-68
2023/05/28 06:01:17;;;;;;;1999.90;999.90;;;14.40;99.90;;;;;;5052675;28;20996;-68
2023/05/28 06:03:43;;;;;;;1999.90;999.90;;;14.50;99.90;;;;;;5053144;28;20582;-68
2023/05/28 06:06:09;;;;;;;1999.90;999.90;;;14.60;99.90;;;;;;5053257;28;20493;-69
2023/05/28 06:08:35;;;;;;;1999.90;999.90;;;14.70;99.90;;;;;;5053031;28;20984;-68
2023/05/28 06:11:01;;;;;;;1999.90;999.90;;;14.80;99.90;;;;;;5052642;28;20592;-70
2023/05/28 06:13:26;;;;;;;1999.90;999.90;;;14.90;99.90;;;;;;5052735;28;20422;-68
2023/05/28 06:15:52;;;;;;;1999.90;999.90;;;15.00;99.90;;;;;;5052854;28;20230;-69
2023/05/28 06:18:17;;;;;;;1999.90;999.90;;;15.10;99.90;;;;;;5053015;28;20180;-69
2023/05/28 06:20:43;;;;;;;1999.90;999.90;;;15.20;99.90;;;;;;5052720;28;20258;-69
2023/05/28 06:23:10;;;;;;;1999.90;999.90;;;15.30;99.90;;;;;;5052544;28;20171;-69
2023/05/28 06:25:37;;;;;;;1999.90;999.90;;;15.40;99.90;;;;;;5052765;28;20188;-68
2023/05/28 06:28:02;;;;;;;1999.90;999.90;;;15.50;99.90;;;;;;5052575;28;20489;-68
2023/05/28 06:30:29;;;;;;;1999.90;999.90;;;15.60;99.90;;;;;;5052673;28;20830;-69
2023/05/28 06:32:55;;;;;;;1999.90;999.90;;;15.70;99.90;;;;;;5052342;28;20399;-69
2023/05/28 06:35:21;;;;;;;1999.90;999.90;;;15.80;99.90;;;;;;5052530;28;20179;-68
2023/05/28 06:37:46;;;;;;;1999.90;999.90;;;16.00;99.90;;;;;;5052532;28;20397;-69
2023/05/28 06:40:12;;;;;;;1999.90;999.90;;;16.10;99.90;;;;;;5052397;28;20458;-68
2023/05/28 06:42:38;;;;;;;1999.90;999.90;;;16.10;99.90;;;;;;5052102;28;20174;-69
2023/05/28 06:45:04;;;;;;;1999.90;999.90;;;16.10;99.90;;;;;;5052117;28;20191;-69
2023/05/28 06:47:30;;;;;;;1999.90;999.90;;;16.20;99.90;;;;;;5052266;28;20178;-69
2023/05/28 06:49:56;;;;;;;1999.90;999.90;;;16.20;99.90;;;;;;5052381;28;20430;-69
2023/05/28 06:52:23;;;;;;;1999.90;999.90;;;16.20;99.90;;;;;;5052128;28;20283;-68
2023/05/28 06:54:49;;;;;;;1999.90;999.90;;;16.10;99.90;;;;;;5052184;28;20188;-69
2023/05/28 06:57:14;;;;;;;1999.90;999.90;;;16.10;99.90;;;;;;5052094;28;20410;-69
2023/05/28 06:59:40;;;;;;;1999.90;999.90;;;16.20;99.90;;;;;;5052072;28;20643;-69
2023/05/28 07:02:05;;;;;;;1999.90;999.90;;;16.20;99.90;;;;;;5051831;28;20210;-69
2023/05/28 07:04:31;;;;;;;1999.90;999.90;;;16.30;99.90;;;;;;5052107;28;20159;-69
2023/05/28 07:06:57;;;;;;;1999.90;999.90;;;16.50;99.90;;;;;;5052006;28;20649;-69
2023/05/28 07:09:22;;;;;;;1999.90;999.90;;;16.60;99.90;;;;;;5051954;28;20457;-69
2023/05/28 07:11:48;;;;;;;1999.90;999.90;;;16.60;99.90;;;;;;5051551;28;20214;-68
2023/05/28 07:14:13;;;;;;;1999.90;999.90;;;16.40;99.90;;;;;;5051946;28;20177;-69
2023/05/28 07:16:40;;;;;;;1999.90;999.90;;;16.50;99.90;;;;;;5051903;28;20638;-69
2023/05/28 07:19:06;;;;;;;1999.90;999.90;;;16.50;99.90;;;;;;5051906;28;20173;-69
2023/05/28 07:21:32;;;;;;;1999.90;999.90;;;16.70;99.90;;;;;;5051534;28;20450;-69
2023/05/28 07:23:58;;;;;;;1999.90;999.90;;;16.90;99.90;;;;;;5051958;28;20207;-69
2023/05/28 07:26:25;;;;;;;1999.90;999.90;;;16.90;99.90;;;;;;5051814;28;20438;-69
2023/05/28 07:28:50;;;;;;;1999.90;999.90;;;17.10;99.90;;;;;;5051700;28;20194;-68
2023/05/28 07:31:16;;;;;;;1999.90;999.90;;;17.40;99.90;;;;;;5051455;28;20944;-69
2023/05/28 07:33:42;;;;;;;1999.90;999.90;;;17.60;99.90;;;;;;5051887;28;20175;-69
2023/05/28 07:36:08;;;;;;;1999.90;999.90;;;17.60;99.90;;;;;;5051735;28;20174;-69
2023/05/28 07:38:34;;;;;;;1999.90;999.90;;;17.80;99.90;;;;;;5051794;28;20203;-69
2023/05/28 07:41:00;;;;;;;1999.90;999.90;;;17.90;99.90;;;;;;5041129;28;20454;-69
2023/05/28 07:43:25;;;;;;;1999.90;999.90;;;18.00;99.90;;;;;;5031713;28;20251;-70
2023/05/28 07:45:51;;;;;;;1999.90;999.90;;;18.10;99.90;;;;;;5031906;28;20202;-69
2023/05/28 07:48:17;;;;;;;1999.90;999.90;;;18.30;99.90;;;;;;5031749;28;20674;-69
2023/05/28 07:50:42;;;;;;;1999.90;999.90;;;18.30;99.90;;;;;;5031607;28;20199;-69
2023/05/28 07:53:08;;;;;;;1999.90;999.90;;;18.30;99.90;;;;;;5031445;28;20172;-69
2023/05/28 07:55:34;;;;;;;1999.90;999.90;;;18.30;99.90;;;;;;5031720;28;20410;-69
2023/05/28 07:58:00;;;;;;;1999.90;999.90;;;18.30;99.90;;;;;;5035468;28;20179;-69
2023/05/28 08:00:26;;;;;;;1999.90;999.90;;;18.30;99.90;;;;;;5035450;28;20439;-69
2023/05/28 08:02:52;;;;;;;1999.90;999.90;;;18.30;99.90;;;;;;5035273;28;20738;-69
2023/05/28 08:05:18;;;;;;;1999.90;999.90;;;18.50;99.90;;;;;;5035405;28;20407;-69
2023/05/28 08:07:44;;;;;;;1999.90;999.90;;;18.40;99.90;;;;;;5035377;28;20409;-68
2023/05/28 08:10:10;;;;;;;1999.90;999.90;;;18.50;99.90;;;;;;5035203;28;20220;-68
2023/05/28 08:12:36;;;;;;;1999.90;999.90;;;18.60;99.90;;;;;;5034892;28;20469;-69
2023/05/28 08:15:02;;;;;;;1999.90;999.90;;;18.70;99.90;;;;;;5035332;28;20818;-68
2023/05/28 08:17:30;;;;;;;1999.90;999.90;;;18.70;99.90;;;;;;5035237;28;20174;-69
2023/05/28 08:19:56;;;;;;;1999.90;999.90;;;18.70;99.90;;;;;;5035221;28;20806;-69
2023/05/28 08:22:21;;;;;;;1999.90;999.90;;;18.90;99.90;;;;;;5034857;28;20406;-69
2023/05/28 08:24:47;;;;;;;1999.90;999.90;;;19.00;99.90;;;;;;5035153;28;20686;-69
2023/05/28 08:27:12;;;;;;;1999.90;999.90;;;19.20;99.90;;;;;;5035020;28;20186;-69
2023/05/28 08:29:38;;;;;;;1999.90;999.90;;;19.20;99.90;;;;;;5034879;28;20209;-69
2023/05/28 08:32:04;;;;;;;1999.90;999.90;;;19.30;99.90;;;;;;5029469;28;20203;-69
2023/05/28 08:34:30;;;;;;;1999.90;999.90;;;19.30;99.90;;;;;;5031832;28;20601;-72
2023/05/28 08:36:56;;;;;;;1999.90;999.90;;;19.40;99.90;;;;;;5032994;28;20503;-72
2023/05/28 08:39:23;;;;;;;1999.90;999.90;;;19.60;99.90;;;;;;5033749;28;20184;-70
2023/05/28 08:41:49;;;;;;;1999.90;999.90;;;19.80;99.90;;;;;;5034293;28;20190;-70
2023/05/28 08:44:15;;;;;;;1999.90;999.90;;;19.90;99.90;;;;;;5032471;28;20462;-69
2023/05/28 08:46:41;;;;;;;1999.90;999.90;;;19.90;99.90;;;;;;5035603;28;20479;-71
2023/05/28 08:49:10;;;;;;;1999.90;999.90;;;20.20;99.90;;;;;;5033047;28;20262;-72
2023/05/28 08:51:37;;;;;;;1999.90;999.90;;;20.30;99.90;;;;;;5032071;28;21281;-72
2023/05/28 08:54:02;;;;;;;1999.90;999.90;;;20.40;99.90;;;;;;5030390;28;20394;-72
2023/05/28 08:56:28;;;;;;;1999.90;999.90;;;20.50;99.90;;;;;;5031657;28;20412;-70
2023/05/28 08:58:55;;;;;;;1999.90;999.90;;;20.60;99.90;;;;;;5030238;28;20724;-71
2023/05/28 09:01:20;;;;;;;1999.90;999.90;;;20.70;99.90;;;;;;5032680;28;20202;-70
2023/05/28 09:03:46;;;;;;;1999.90;999.90;;;20.90;99.90;;;;;;5036980;28;20423;-67
2023/05/28 09:06:15;;;;;;;1999.90;999.90;;;21.10;99.90;;;;;;5036629;28;20172;-69
2023/05/28 09:08:43;;;;;;;1999.90;999.90;;;21.20;99.90;;;;;;5037993;28;20207;-69
2023/05/28 09:11:14;;;;;;;1999.90;999.90;;;21.40;99.90;;;;;;5035109;28;20526;-71
2023/05/28 09:13:48;;;;;;;1999.90;999.90;;;21.50;95.90;;;;;;5035302;28;21169;-71
2023/05/28 09:16:24;;;;;;;1999.90;999.90;;;21.60;95.90;;;;;;5045522;28;20387;-70
2023/05/28 09:18:51;;;;;;;1999.90;999.90;;;21.60;92.80;;;;;;5053683;28;20512;-71
2023/05/28 09:21:20;;;;;;;1999.90;999.90;;;21.40;95.20;;;;;;5052605;28;20773;-69
2023/05/28 09:23:50;;;;;;;1999.90;999.90;;;21.60;93.50;;;;;;5050972;28;20414;-69
2023/05/28 09:26:19;;;;;;;1999.90;999.90;;;21.60;93.20;;;;;;5052122;28;20530;-70
2023/05/28 09:28:45;;;;;;;1999.90;999.90;;;22.00;93.30;;;;;;5053081;28;20469;-70
2023/05/28 09:31:11;;;;;;;1999.90;999.90;;;22.20;90.80;;;;;;5053366;28;20784;-70
2023/05/28 09:33:44;;;;;;;1999.90;999.90;;;22.30;91.40;;;;;;5053839;28;20243;-70
2023/05/28 09:36:11;;;;;;;1999.90;999.90;;;22.50;91.00;;;;;;5047765;28;20418;-69
2023/05/28 09:38:41;;;;;;;1999.90;999.90;;;22.70;89.20;;;;;;5048038;28;20393;-69
2023/05/28 09:41:33;;;;;;;1999.90;999.90;;;22.90;83.90;;;;;;5047073;28;20422;-70
2023/05/28 09:44:02;;;;;;;1999.90;999.90;;;23.10;72.00;;;;;;5048582;28;20414;-71
2023/05/28 09:46:32;;;;;;;1999.90;999.90;;;23.30;71.10;;;;;;5049709;28;21009;-69
2023/05/28 09:48:58;;;;;;;1999.90;999.90;;;23.20;64.30;;;;;;5052218;28;20439;-69
2023/05/28 09:51:31;;;;;;;1999.90;999.90;;;23.00;65.30;;;;;;5052782;28;20396;-69
2023/05/28 09:54:00;;;;;;;1999.90;999.90;;;23.10;65.80;;;;;;5053083;28;20398;-69
2023/05/28 09:56:31;;;;;;;1999.90;999.90;;;23.30;63.70;;;;;;5052469;28;20405;-69
2023/05/28 09:58:58;;;;;;;1999.90;999.90;;;23.50;58.40;;;;;;5053136;28;20758;-69
2023/05/28 10:01:26;;;;;;;1999.90;999.90;;;23.50;54.00;;;;;;5052826;28;20410;-69
2023/05/28 10:04:04;;;;;;;1999.90;999.90;;;23.50;56.80;;;;;;5052739;28;20440;-70
2023/05/28 10:06:31;;;;;;;1999.90;999.90;;;23.40;51.10;;;;;;5052478;28;20406;-70
2023/05/28 10:08:59;;;;;;;1999.90;999.90;;;23.40;54.70;;;;;;5052615;28;20432;-70
2023/05/28 10:11:27;;;;;;;1999.90;999.90;;;23.40;52.60;;;;;;5051980;28;20480;-69
2023/05/28 10:13:54;;;;;;;1999.90;999.90;;;23.30;49.70;;;;;;5052693;28;20512;-71
2023/05/28 10:16:21;;;;;;;1999.90;999.90;;;23.40;50.80;;;;;;5052696;28;20405;-70
2023/05/28 10:18:46;;;;;;;1999.90;999.90;;;23.70;49.60;;;;;;5051339;28;20392;-70
2023/05/28 10:21:15;;;;;;;1999.90;999.90;;;24.00;49.50;;;;;;5052383;28;20430;-71
2023/05/28 10:23:42;;;;;;;1999.90;999.90;;;24.10;42.70;;;;;;5052236;28;20225;-70
2023/05/28 10:26:08;;;;;;;1999.90;999.90;;;24.10;36.50;;;;;;5051950;28;20767;-70
2023/05/28 10:28:34;;;;;;;1999.90;999.90;;;24.20;35.50;;;;;;5052373;28;20428;-70
2023/05/28 10:31:03;;;;;;;1999.90;999.90;;;24.40;35.10;;;;;;5052175;28;20414;-70
2023/05/28 10:33:36;;;;;;;1999.90;999.90;;;24.70;38.00;;;;;;5051832;28;20262;-71
2023/05/28 10:36:02;;;;;;;1999.90;999.90;;;24.70;31.40;;;;;;5052489;28;20424;-71
2023/05/28 10:38:29;;;;;;;1999.90;999.90;;;24.70;32.40;;;;;;5052154;28;20388;-71
2023/05/28 10:41:04;;;;;;;1999.90;999.90;;;24.90;32.70;;;;;;5051498;28;20187;-70
2023/05/28 10:43:39;;;;;;;1999.90;999.90;;;25.20;29.70;;;;;;5052012;28;20405;-71
2023/05/28 10:46:25;;;;;;;1999.90;999.90;;;25.30;27.10;;;;;;5052307;28;20384;-70
2023/05/28 10:49:08;;;;;;;1999.90;999.90;;;25.40;24.90;;;;;;5051748;28;20450;-70
2023/05/28 10:51:43;;;;;;;1999.90;999.90;;;25.30;18.80;;;;;;5051682;28;20445;-70
2023/05/28 10:54:20;;;;;;;1999.90;999.90;;;25.00;20.20;;;;;;5052024;28;20804;-70
2023/05/28 10:57:10;;;;;;;1999.90;999.90;;;24.90;20.70;;;;;;5051520;28;20376;-71
2023/05/28 10:59:38;;;;;;;1999.90;999.90;;;25.20;20.50;;;;;;5051992;28;20417;-70
2023/05/28 11:02:08;;;;;;;1999.90;999.90;;;25.20;20.10;;;;;;5051854;28;20533;-71
2023/05/28 11:04:37;;;;;;;1999.90;999.90;;;25.20;18.20;;;;;;5051163;28;20506;-71
2023/05/28 11:07:04;;;;;;;1999.90;999.90;;;25.40;18.40;;;;;;5051826;28;20765;-71
2023/05/28 11:09:30;;;;;;;1999.90;999.90;;;25.50;16.30;;;;;;5051524;28;20511;-70
2023/05/28 11:12:01;;;;;;;1999.90;999.90;;;25.70;17.40;;;;;;5050827;28;20493;-69
2023/05/28 11:14:37;;;;;;;1999.90;999.90;;;25.20;14.90;;;;;;5051969;28;20198;-71
2023/05/28 11:17:12;;;;;;;1999.90;999.90;;;25.40;18.20;;;;;;5051196;28;20906;-71
2023/05/28 11:19:43;;;;;;;1999.90;999.90;;;25.70;15.50;;;;;;5051565;28;20380;-70
2023/05/28 11:22:09;;;;;;;1999.90;999.90;;;25.90;13.60;;;;;;5051447;28;20419;-71
2023/05/28 11:24:58;;;;;;;1999.90;999.90;;;25.90;13.20;;;;;;5051126;28;20772;-71
2023/05/28 11:27:25;;;;;;;1999.90;999.90;;;26.30;17.50;;;;;;5051683;28;20405;-71
2023/05/28 11:29:56;;;;;;;1999.90;999.90;;;26.40;15.00;;;;;;5051917;28;20465;-70
2023/05/28 11:32:22;;;;;;;1999.90;999.90;;;26.70;13.90;;;;;;5057437;28;20405;-71
2023/05/28 11:34:49;;;;;;;1999.90;999.90;;;26.30;10.90;;;;;;5058150;28;20891;-70
2023/05/28 11:37:19;;;;;;;1999.90;999.90;;;26.50;16.10;;;;;;5058123;28;20410;-71
2023/05/28 11:39:52;;;;;;;1999.90;999.90;;;26.60;12.40;;;;;;5057554;28;20557;-70
2023/05/28 11:42:19;;;;;;;1999.90;999.90;;;26.80;13.40;;;;;;5057675;28;20405;-71
2023/05/28 11:44:49;;;;;;;1999.90;999.90;;;27.00;13.30;;;;;;5057980;28;20432;-71
2023/05/28 11:47:15;;;;;;;1999.90;999.90;;;27.10;14.20;;;;;;5057636;28;20399;-70
2023/05/28 11:49:46;;;;;;;1999.90;999.90;;;27.30;11.30;;;;;;5057837;28;20989;-71
2023/05/28 11:52:13;;;;;;;1999.90;999.90;;;26.80;8.80;;;;;;5057744;28;20566;-70
2023/05/28 11:54:43;;;;;;;1999.90;999.90;;;26.40;10.20;;;;;;5057431;28;21096;-71
2023/05/28 11:57:09;;;;;;;1999.90;999.90;;;26.50;10.60;;;;;;5057950;28;20390;-71